Waverly, VA

10:19 AM EDT on September 05, 2015 (GMT -0400)
Wakefield Municipal | | Change Station
CLOSE
Current Station
Airport
Location: Wakefield,
Elevation: 112 ft
Nearby Weather Stations

Elev 112 ft 36.98 °N, 77.01 °W | Updated 18 minutes ago

Haze
Haze
80 °F
Feels Like 84 °F
N
6
Wind Variable Wind from NNE

Today
High -- | Low -- °F
--% Chance of Precip.
Yesterday
High -- | Low -- °F
Precip. -- in
6:41 AM 7:31 PM
Waning Gibbous, 48% visible
Pressure 30.16 in
Visibility 6.0 miles
Clouds Few 1200 ft
Mostly Cloudy 1900 ft
Heat Index 84 °F
Dew Point 73 °F
Humidity 79%
Rainfall 0.00 in
Snow Depth Not available.
UV 3 out of 12
Pollen 9.20 out of 12
Air Quality Not available.
Flu Activity Not available.
SPECI KAKQ 051401Z AUTO 03005KT 6SM HZ FEW012 BKN019 27/23 A3016 RMK AO2 T02670228 TSNO
Pressure 30.16 in
Visibility 6.0 miles
Clouds Few 1200 ft
Mostly Cloudy 1900 ft
Heat Index 84 °F
Dew Point 73 °F
Humidity 79%
Rainfall 0.00 in
Snow Depth Not available.
UV 3 out of 12
Pollen 9.20 out of 12
Air Quality Not available.
Flu Activity Not available.
SPECI KAKQ 051401Z AUTO 03005KT 6SM HZ FEW012 BKN019 27/23 A3016 RMK AO2 T02670228 TSNO

10-Day Weather Forecast

×

Almanac

Astronomy

Sep. 05, 2015 Rise Set
Actual Time
Civil Twilight
Nautical Twilight
Astronomical Twilight
Moon
Length of Visible Light
Length of Day
Tomorrow will be .
, % of the Moon is Illuminated

Today's Extremes

State Highs State Lows

Community

WunderPhotos

Upload Photos

1,852,472 photos uploaded!

WunderBlogs® & News

Nearby

Air Quality

  Air Quality AQ Index Pollutant
Not available.

Snow Depth

Station Depth Elevation

Earthquake Activity

City Distance Mag. Time & Date
Minimum magnitude displayed is 2.5.

Coastal Water Temperatures

Place Temperature

Stations

Nearby Weather Stations

Station Location Temp. Windchill Dew Point Humidity Wind Precip. Elev Updated Type